createdAt,value
2022-10-11T00:01:17.134Z,12.80
2022-10-11T00:03:22.878Z,12.80
2022-10-11T00:05:25.953Z,12.70
2022-10-11T00:07:29.680Z,12.70
2022-10-11T00:09:32.616Z,12.70
2022-10-11T00:11:35.268Z,12.60
2022-10-11T00:13:38.543Z,12.60
2022-10-11T00:15:41.509Z,12.60
2022-10-11T00:17:44.305Z,12.50
2022-10-11T00:19:49.388Z,12.50
2022-10-11T00:21:52.169Z,12.50
2022-10-11T00:23:54.831Z,12.40
2022-10-11T00:26:03.065Z,12.40
2022-10-11T00:28:08.466Z,12.30
2022-10-11T00:30:12.526Z,12.30
2022-10-11T00:32:19.705Z,12.20
2022-10-11T00:34:22.893Z,12.20
2022-10-11T00:36:26.680Z,12.10
2022-10-11T00:38:32.213Z,12.10
2022-10-11T00:40:37.580Z,12.00
2022-10-11T00:42:40.566Z,12.00
2022-10-11T00:44:48.170Z,11.90
2022-10-11T00:47:15.479Z,11.90
2022-10-11T00:49:49.878Z,11.80
2022-10-11T00:51:59.162Z,11.80
2022-10-11T00:54:02.819Z,11.70
2022-10-11T00:56:15.551Z,11.70
2022-10-11T00:58:19.626Z,11.70
2022-10-11T01:00:22.255Z,11.60
2022-10-11T01:02:27.159Z,11.60
2022-10-11T01:04:29.807Z,11.60
2022-10-11T01:06:35.179Z,11.50
2022-10-11T01:08:41.273Z,11.50
2022-10-11T01:10:44.574Z,11.40
2022-10-11T01:13:12.594Z,11.40
2022-10-11T01:15:48.159Z,11.30
2022-10-11T01:18:09.486Z,11.30
2022-10-11T01:20:37.236Z,11.20
2022-10-11T01:23:10.598Z,11.10
2022-10-11T01:25:36.719Z,11.20
2022-10-11T01:27:54.345Z,11.10
2022-10-11T01:30:19.415Z,11.10
2022-10-11T01:32:32.039Z,11.10
2022-10-11T01:34:58.897Z,11.10
2022-10-11T01:37:12.772Z,11.00
2022-10-11T01:39:24.793Z,10.90
2022-10-11T01:41:44.175Z,10.80
2022-10-11T01:43:48.586Z,10.70
2022-10-11T01:45:55.059Z,10.70
2022-10-11T01:48:13.179Z,10.70
2022-10-11T01:50:39.700Z,10.60
2022-10-11T01:52:44.985Z,10.50
2022-10-11T01:55:15.758Z,10.50
2022-10-11T01:57:47.064Z,10.40
2022-10-11T02:00:18.872Z,10.30
2022-10-11T02:03:06.049Z,10.20
2022-10-11T02:05:27.202Z,10.10
2022-10-11T02:08:05.759Z,10.00
2022-10-11T02:10:28.018Z,10.00
2022-10-11T02:12:42.410Z,9.90
2022-10-11T02:14:51.038Z,9.80
2022-10-11T02:17:04.398Z,9.80
2022-10-11T02:19:08.310Z,9.80
2022-10-11T02:21:22.072Z,9.70
2022-10-11T02:23:31.270Z,9.70
2022-10-11T02:25:45.058Z,9.70
2022-10-11T02:27:48.974Z,9.60
2022-10-11T02:29:54.310Z,9.60
2022-10-11T02:32:00.563Z,9.50
2022-10-11T02:34:23.577Z,9.50
2022-10-11T02:37:19.182Z,9.50
2022-10-11T02:39:42.999Z,9.50
2022-10-11T02:41:47.540Z,9.40
2022-10-11T02:43:59.730Z,9.40
2022-10-11T02:46:04.375Z,9.40
2022-10-11T02:48:08.811Z,9.40
2022-10-11T02:50:14.348Z,9.30
2022-10-11T02:52:30.158Z,9.30
2022-10-11T02:54:33.305Z,9.20
2022-10-11T02:56:35.921Z,9.20
2022-10-11T02:58:38.543Z,9.20
2022-10-11T03:00:41.148Z,9.20
2022-10-11T03:02:43.738Z,9.20
2022-10-11T03:04:46.409Z,9.20
2022-10-11T03:06:49.009Z,9.20
2022-10-11T03:08:51.545Z,9.10
2022-10-11T03:10:54.291Z,9.10
2022-10-11T03:12:56.912Z,9.10
2022-10-11T03:14:59.437Z,9.10
2022-10-11T03:17:23.823Z,9.10
2022-10-11T03:19:24.692Z,9.10
2022-10-11T03:21:27.318Z,9.00
2022-10-11T03:23:29.913Z,9.00
2022-10-11T03:25:32.492Z,9.00
2022-10-11T03:27:35.524Z,9.00
2022-10-11T03:29:38.136Z,9.00
2022-10-11T03:31:40.798Z,8.90
2022-10-11T03:33:43.435Z,8.90
2022-10-11T03:35:48.071Z,8.90
2022-10-11T03:37:51.634Z,8.90
2022-10-11T03:39:54.378Z,8.90
2022-10-11T03:41:57.043Z,8.80
2022-10-11T03:43:59.644Z,8.80
2022-10-11T03:46:02.511Z,8.80
2022-10-11T03:48:05.945Z,8.80
2022-10-11T03:50:09.667Z,8.80
2022-10-11T03:52:12.341Z,8.70
2022-10-11T03:54:14.920Z,8.70
2022-10-11T03:56:17.401Z,8.70
2022-10-11T03:58:20.227Z,8.60
2022-10-11T04:00:22.842Z,8.60
2022-10-11T04:02:25.592Z,8.60
2022-10-11T04:04:28.364Z,8.60
2022-10-11T04:06:31.322Z,8.50
2022-10-11T04:08:33.984Z,8.50
2022-10-11T04:10:36.690Z,8.40
2022-10-11T04:12:39.326Z,8.40
2022-10-11T04:14:41.928Z,8.50
2022-10-11T04:16:44.721Z,8.40
2022-10-11T04:18:47.781Z,8.50
2022-10-11T04:20:50.398Z,8.50
2022-10-11T04:22:53.018Z,8.50
2022-10-11T04:24:58.181Z,8.50
2022-10-11T04:27:00.819Z,8.40
2022-10-11T04:29:05.224Z,8.50
2022-10-11T04:31:08.092Z,8.50
2022-10-11T04:33:11.677Z,8.40
2022-10-11T04:35:14.479Z,8.40
2022-10-11T04:37:20.287Z,8.40
2022-10-11T04:39:23.022Z,8.40
2022-10-11T04:41:25.670Z,8.30
2022-10-11T04:43:28.253Z,8.30
2022-10-11T04:45:30.924Z,8.30
2022-10-11T04:47:33.639Z,8.40
2022-10-11T04:49:36.531Z,8.30
2022-10-11T04:51:39.181Z,8.30
2022-10-11T04:53:41.828Z,8.30
2022-10-11T04:55:44.546Z,8.30
2022-10-11T04:57:47.793Z,8.30
2022-10-11T04:59:50.547Z,8.30
2022-10-11T05:01:53.598Z,8.20
2022-10-11T05:03:56.312Z,8.20
2022-10-11T05:06:07.109Z,8.20
2022-10-11T05:08:09.990Z,8.20
2022-10-11T05:10:12.790Z,8.20
2022-10-11T05:12:15.512Z,8.20
2022-10-11T05:14:18.354Z,8.10
2022-10-11T05:16:21.391Z,8.10
2022-10-11T05:18:52.669Z,8.10
2022-10-11T05:21:15.935Z,8.10
2022-10-11T05:23:19.652Z,8.00
2022-10-11T05:25:22.241Z,8.00
2022-10-11T05:27:24.835Z,8.00
2022-10-11T05:29:31.131Z,8.00
2022-10-11T05:31:33.943Z,8.00
2022-10-11T05:33:36.964Z,7.90
2022-10-11T05:35:39.727Z,8.00
2022-10-11T05:37:42.434Z,8.00
2022-10-11T05:40:13.079Z,7.90
2022-10-11T05:42:15.835Z,8.00
2022-10-11T05:44:18.893Z,7.90
2022-10-11T05:46:32.407Z,8.00
2022-10-11T05:48:34.953Z,8.00
2022-10-11T05:50:41.055Z,8.00
2022-10-11T05:52:43.682Z,8.10
2022-10-11T05:54:46.452Z,8.10
2022-10-11T05:56:49.040Z,8.20
2022-10-11T05:58:52.612Z,8.20
2022-10-11T06:00:57.041Z,8.30
2022-10-11T06:03:00.023Z,8.30
2022-10-11T06:05:02.727Z,8.30
2022-10-11T06:07:07.855Z,8.30
2022-10-11T06:09:10.464Z,8.30
2022-10-11T06:11:20.031Z,8.40
2022-10-11T06:13:22.667Z,8.40
2022-10-11T06:15:25.536Z,8.40
2022-10-11T06:17:28.339Z,8.40
2022-10-11T06:19:51.601Z,8.50
2022-10-11T06:21:58.123Z,8.50
2022-10-11T06:24:01.928Z,8.50
2022-10-11T06:26:30.179Z,8.50
2022-10-11T06:28:35.015Z,8.60
2022-10-11T06:30:38.990Z,8.60
2022-10-11T06:32:41.617Z,8.60
2022-10-11T06:34:44.224Z,8.70
2022-10-11T06:36:46.933Z,8.70
2022-10-11T06:38:55.463Z,8.70
2022-10-11T06:41:33.316Z,8.70
2022-10-11T06:43:35.956Z,8.80
2022-10-11T06:45:38.509Z,8.80
2022-10-11T06:47:41.322Z,8.80
2022-10-11T06:49:43.864Z,8.90
2022-10-11T06:51:46.504Z,8.90
2022-10-11T06:53:52.114Z,9.00
2022-10-11T06:55:55.691Z,9.00
2022-10-11T06:57:58.407Z,9.10
2022-10-11T07:00:00.934Z,9.10
2022-10-11T07:02:05.782Z,9.10
2022-10-11T07:04:20.781Z,9.20
2022-10-11T07:06:46.984Z,9.20
2022-10-11T07:09:20.161Z,9.30
2022-10-11T07:11:32.101Z,9.40
2022-10-11T07:13:35.415Z,9.50
2022-10-11T07:15:38.345Z,9.60
2022-10-11T07:17:41.027Z,9.60
2022-10-11T07:19:43.788Z,9.70
2022-10-11T07:22:01.535Z,9.70
2022-10-11T07:24:04.455Z,9.80
2022-10-11T07:26:13.429Z,9.80
2022-10-11T07:28:18.475Z,9.90
2022-10-11T07:30:34.181Z,10.00
2022-10-11T07:32:37.517Z,10.10
2022-10-11T07:34:40.732Z,10.10
2022-10-11T07:36:49.712Z,10.10
2022-10-11T07:38:52.779Z,10.20
2022-10-11T07:40:55.401Z,10.20
2022-10-11T07:42:58.563Z,10.30
2022-10-11T07:45:01.745Z,10.40
2022-10-11T07:47:08.921Z,10.40
2022-10-11T07:49:14.722Z,10.50
2022-10-11T07:52:12.895Z,10.60
2022-10-11T07:54:22.595Z,10.60
2022-10-11T07:56:54.709Z,10.70
2022-10-11T07:59:05.428Z,10.80
2022-10-11T08:01:10.535Z,10.80
2022-10-11T08:03:14.079Z,10.80
2022-10-11T08:05:16.924Z,10.90
2022-10-11T08:07:19.538Z,10.90
2022-10-11T08:09:30.284Z,11.00
2022-10-11T08:11:36.938Z,11.00
2022-10-11T08:13:39.528Z,11.10
2022-10-11T08:15:45.813Z,11.20
2022-10-11T08:17:48.367Z,11.20
2022-10-11T08:19:51.941Z,11.30
2022-10-11T08:21:54.473Z,11.30
2022-10-11T08:23:57.069Z,11.40
2022-10-11T08:25:59.625Z,11.50
2022-10-11T08:28:02.173Z,11.50
2022-10-11T08:30:05.803Z,11.60
2022-10-11T08:32:11.948Z,11.60
2022-10-11T08:34:14.546Z,11.70
2022-10-11T08:36:17.081Z,11.70
2022-10-11T08:38:21.452Z,11.80
2022-10-11T08:40:27.341Z,11.80
2022-10-11T08:42:40.120Z,11.90
2022-10-11T08:45:10.604Z,12.00
2022-10-11T08:47:31.051Z,12.00
2022-10-11T08:49:34.489Z,12.10
2022-10-11T08:51:47.550Z,12.10
2022-10-11T08:54:50.215Z,12.20
2022-10-11T08:56:55.672Z,12.30
2022-10-11T08:59:25.362Z,12.30
2022-10-11T09:01:31.289Z,12.40
2022-10-11T09:03:43.257Z,12.50
2022-10-11T09:06:12.509Z,12.50
2022-10-11T09:08:53.942Z,12.60
2022-10-11T09:11:19.471Z,12.60
2022-10-11T09:17:14.626Z,12.70
2022-10-11T09:19:47.546Z,12.80
2022-10-11T09:22:39.247Z,12.80
2022-10-11T09:25:15.538Z,12.90
2022-10-11T09:27:50.222Z,12.90
2022-10-11T09:30:06.859Z,13.00
2022-10-11T09:32:17.516Z,13.00
2022-10-11T09:34:25.230Z,13.00
2022-10-11T09:37:03.958Z,13.10
2022-10-11T09:39:32.085Z,13.10
2022-10-11T09:41:47.935Z,13.20
2022-10-11T09:44:22.463Z,13.20
2022-10-11T09:46:45.002Z,13.30
2022-10-11T09:48:48.133Z,13.30
2022-10-11T09:50:51.859Z,13.40
2022-10-11T09:52:59.825Z,13.40
2022-10-11T09:55:04.829Z,13.50
2022-10-11T09:57:24.125Z,13.40
2022-10-11T09:59:34.610Z,13.50
2022-10-11T10:01:37.326Z,13.50
2022-10-11T10:03:44.315Z,13.60
2022-10-11T10:06:05.202Z,13.70
2022-10-11T10:08:10.644Z,13.70
2022-10-11T10:10:41.544Z,13.70
2022-10-11T10:12:53.394Z,13.80
2022-10-11T10:15:07.688Z,13.90
2022-10-11T10:17:18.254Z,14.00
2022-10-11T10:19:25.626Z,14.10
2022-10-11T10:21:35.572Z,14.10
2022-10-11T10:23:38.419Z,14.20
2022-10-11T10:25:43.683Z,14.20
2022-10-11T10:27:58.571Z,14.20
2022-10-11T10:30:10.005Z,14.30
2022-10-11T10:32:23.495Z,14.40
2022-10-11T10:34:34.339Z,14.50
2022-10-11T10:36:43.465Z,14.70
2022-10-11T10:38:59.742Z,14.90
2022-10-11T10:41:14.897Z,15.00
2022-10-11T10:43:27.987Z,15.20
2022-10-11T10:45:50.076Z,15.30
2022-10-11T10:48:26.027Z,15.40
2022-10-11T10:50:52.842Z,15.50
2022-10-11T10:53:16.597Z,15.50
2022-10-11T10:55:24.945Z,15.50
2022-10-11T10:58:03.176Z,15.60
2022-10-11T11:00:15.321Z,15.70
2022-10-11T11:02:40.675Z,15.80
2022-10-11T11:05:12.846Z,15.90
2022-10-11T11:07:17.872Z,16.00
2022-10-11T11:09:44.625Z,16.10
2022-10-11T11:12:21.717Z,16.20
2022-10-11T11:14:47.765Z,16.30
2022-10-11T11:17:24.724Z,16.20
2022-10-11T11:19:41.142Z,16.20
2022-10-11T11:22:00.098Z,16.20
2022-10-11T11:24:35.393Z,16.20
2022-10-11T11:27:02.182Z,16.10
2022-10-11T11:29:28.171Z,16.10
2022-10-11T11:32:00.457Z,16.10
2022-10-11T11:34:38.591Z,16.10
2022-10-11T11:36:56.993Z,16.10
2022-10-11T11:39:04.010Z,16.20
2022-10-11T11:41:21.456Z,16.20
2022-10-11T11:43:39.477Z,16.20
2022-10-11T11:45:49.292Z,16.10
2022-10-11T11:48:28.027Z,16.00
2022-10-11T11:50:40.220Z,16.00
2022-10-11T11:52:52.178Z,15.90
2022-10-11T11:55:11.293Z,15.80
2022-10-11T11:58:08.167Z,15.80
2022-10-11T12:00:24.310Z,15.60
2022-10-11T12:03:02.269Z,15.50
2022-10-11T12:05:08.708Z,15.30
2022-10-11T12:07:17.129Z,15.30
2022-10-11T12:09:22.850Z,15.30
2022-10-11T12:12:05.641Z,15.20
2022-10-11T12:14:34.342Z,15.20
2022-10-11T12:17:16.290Z,15.20
2022-10-11T12:19:20.763Z,15.10
2022-10-11T12:21:41.612Z,15.00
2022-10-11T12:23:57.042Z,15.00
2022-10-11T12:26:32.691Z,15.00
2022-10-11T12:28:39.488Z,14.90
2022-10-11T12:30:47.066Z,14.90
2022-10-11T12:32:51.609Z,14.90
2022-10-11T12:35:31.675Z,14.90
2022-10-11T12:37:37.102Z,15.00
2022-10-11T12:39:55.469Z,15.00
2022-10-11T12:42:27.292Z,15.10
2022-10-11T12:45:12.981Z,15.20
2022-10-11T12:48:00.945Z,15.20
2022-10-11T12:50:41.033Z,15.30
2022-10-11T12:53:25.915Z,15.20
2022-10-11T12:56:12.214Z,15.10
2022-10-11T12:58:38.805Z,15.00
2022-10-11T13:00:41.647Z,14.90
2022-10-11T13:02:45.115Z,14.90
2022-10-11T13:04:47.754Z,14.80
2022-10-11T13:06:54.903Z,14.80
2022-10-11T13:09:22.675Z,14.70
2022-10-11T13:11:32.111Z,14.70
2022-10-11T13:14:01.706Z,14.70
2022-10-11T13:16:20.379Z,14.70
2022-10-11T13:18:26.047Z,14.70
2022-10-11T13:20:37.569Z,14.80
2022-10-11T13:22:44.289Z,14.80
2022-10-11T13:24:46.972Z,14.80
2022-10-11T13:26:52.318Z,14.80
2022-10-11T13:29:01.045Z,14.80
2022-10-11T13:31:05.475Z,14.80
2022-10-11T13:33:27.762Z,14.80
2022-10-11T13:35:38.186Z,14.90
2022-10-11T13:37:47.074Z,14.90
2022-10-11T13:39:52.827Z,14.90
2022-10-11T13:41:57.043Z,14.90
2022-10-11T13:44:00.662Z,14.90
2022-10-11T13:46:07.028Z,15.00
2022-10-11T13:48:15.722Z,15.00
2022-10-11T13:50:33.738Z,15.10
2022-10-11T13:52:36.731Z,15.20
2022-10-11T13:55:03.709Z,15.20
2022-10-11T13:57:06.407Z,15.40
2022-10-11T13:59:21.939Z,15.40
2022-10-11T14:01:38.631Z,15.50
2022-10-11T14:03:49.971Z,15.70
2022-10-11T14:06:00.254Z,15.70
2022-10-11T14:08:23.009Z,15.90
2022-10-11T14:10:26.370Z,16.00
2022-10-11T14:12:37.168Z,16.00
2022-10-11T14:14:42.731Z,16.10
2022-10-11T14:16:59.508Z,16.10
2022-10-11T14:19:09.980Z,16.10
2022-10-11T14:21:31.081Z,16.10
2022-10-11T14:23:34.594Z,16.00
2022-10-11T14:25:37.198Z,15.90
2022-10-11T14:27:40.767Z,15.90
2022-10-11T14:29:55.558Z,15.80
2022-10-11T14:32:14.728Z,15.80
2022-10-11T14:34:23.007Z,15.80
2022-10-11T14:36:26.319Z,15.80
2022-10-11T14:38:28.967Z,15.90
2022-10-11T14:40:32.236Z,15.90
2022-10-11T14:42:34.981Z,15.90
2022-10-11T14:44:37.839Z,16.00
2022-10-11T14:46:41.424Z,16.10
2022-10-11T14:48:55.099Z,16.10
2022-10-11T14:51:03.418Z,16.10
2022-10-11T14:53:08.013Z,16.00
2022-10-11T14:55:10.852Z,16.00
2022-10-11T14:57:17.171Z,15.90
2022-10-11T14:59:24.715Z,15.80
2022-10-11T15:01:27.454Z,15.80
2022-10-11T15:03:41.235Z,15.70
2022-10-11T15:05:43.970Z,15.70
2022-10-11T15:07:46.707Z,15.60
2022-10-11T15:09:49.538Z,15.60
2022-10-11T15:12:09.491Z,15.50
2022-10-11T15:14:20.387Z,15.50
2022-10-11T15:16:30.275Z,15.40
2022-10-11T15:19:08.265Z,15.30
2022-10-11T15:21:14.643Z,15.20
2022-10-11T15:23:17.249Z,15.10
2022-10-11T15:25:23.371Z,15.00
2022-10-11T15:27:28.756Z,15.00
2022-10-11T15:29:31.392Z,14.90
2022-10-11T15:31:33.956Z,14.80
2022-10-11T15:33:36.948Z,14.70
2022-10-11T15:35:40.145Z,14.70
2022-10-11T15:37:53.865Z,14.60
2022-10-11T15:39:56.519Z,14.50
2022-10-11T15:42:00.055Z,14.50
2022-10-11T15:44:03.360Z,14.40
2022-10-11T15:46:06.878Z,14.30
2022-10-11T15:48:15.787Z,14.30
2022-10-11T15:50:34.096Z,14.20
2022-10-11T15:52:42.608Z,14.20
2022-10-11T15:54:45.197Z,14.10
2022-10-11T15:56:48.061Z,14.00
2022-10-11T15:58:53.818Z,13.90
2022-10-11T16:01:01.952Z,13.80
2022-10-11T16:03:06.000Z,13.80
2022-10-11T16:05:14.730Z,13.60
2022-10-11T16:07:17.403Z,13.60
2022-10-11T16:09:20.343Z,13.50
2022-10-11T16:11:22.941Z,13.40
2022-10-11T16:13:25.554Z,13.30
2022-10-11T16:16:09.866Z,13.20
2022-10-11T16:18:16.425Z,13.10
2022-10-11T16:20:24.891Z,13.00
2022-10-11T16:22:27.823Z,12.90
2022-10-11T16:24:53.185Z,12.80
2022-10-11T16:26:55.819Z,12.70
2022-10-11T16:28:58.575Z,12.60
2022-10-11T16:31:16.784Z,12.50
2022-10-11T16:33:19.558Z,12.40
2022-10-11T16:35:22.682Z,12.30
2022-10-11T16:37:28.674Z,12.20
2022-10-11T16:39:31.340Z,12.20
2022-10-11T16:41:34.065Z,12.10
2022-10-11T16:43:36.725Z,12.00
2022-10-11T16:45:39.342Z,12.00
2022-10-11T16:47:43.653Z,11.90
2022-10-11T16:49:46.887Z,11.80
2022-10-11T16:51:51.305Z,11.80
2022-10-11T16:53:53.995Z,11.70
2022-10-11T16:55:56.857Z,11.60
2022-10-11T16:57:59.465Z,11.60
2022-10-11T17:00:02.358Z,11.50
2022-10-11T17:02:05.840Z,11.50
2022-10-11T17:04:09.677Z,11.40
2022-10-11T17:06:12.232Z,11.40
2022-10-11T17:08:14.889Z,11.30
2022-10-11T17:10:17.449Z,11.30
2022-10-11T17:12:23.215Z,11.20
2022-10-11T17:14:25.912Z,11.10
2022-10-11T17:16:28.840Z,11.10
2022-10-11T17:18:32.772Z,11.10
2022-10-11T17:20:35.459Z,11.00
2022-10-11T17:22:37.978Z,10.90
2022-10-11T17:24:40.793Z,10.90
2022-10-11T17:26:43.392Z,10.80
2022-10-11T17:28:46.257Z,10.80
2022-10-11T17:30:58.356Z,10.80
2022-10-11T17:33:01.101Z,10.70
2022-10-11T17:35:05.636Z,10.70
2022-10-11T17:37:10.196Z,10.60
2022-10-11T17:39:16.439Z,10.60
2022-10-11T17:41:20.074Z,10.50
2022-10-11T17:43:22.899Z,10.50
2022-10-11T17:45:25.771Z,10.50
2022-10-11T17:47:30.562Z,10.40
2022-10-11T17:49:33.324Z,10.40
2022-10-11T17:51:37.484Z,10.30
2022-10-11T17:53:41.093Z,10.30
2022-10-11T17:55:46.341Z,10.20
2022-10-11T17:57:49.206Z,10.20
2022-10-11T17:59:51.906Z,10.10
2022-10-11T18:01:55.184Z,10.10
2022-10-11T18:04:01.672Z,10.00
2022-10-11T18:06:10.358Z,10.00
2022-10-11T18:08:19.145Z,10.00
2022-10-11T18:10:24.619Z,9.90
2022-10-11T18:12:28.118Z,9.90
2022-10-11T18:14:35.880Z,9.90
2022-10-11T18:16:40.353Z,9.90
2022-10-11T18:18:49.797Z,9.90
2022-10-11T18:21:21.267Z,9.80
2022-10-11T18:23:25.489Z,9.80
2022-10-11T18:25:29.995Z,9.80
2022-10-11T18:27:47.837Z,9.80
2022-10-11T18:29:54.507Z,9.80
2022-10-11T18:31:57.967Z,9.70
2022-10-11T18:34:14.042Z,9.70
2022-10-11T18:36:23.657Z,9.60
2022-10-11T18:38:47.323Z,9.60
2022-10-11T18:40:53.612Z,9.50
2022-10-11T18:42:57.616Z,9.50
2022-10-11T18:45:03.490Z,9.40
2022-10-11T18:47:08.159Z,9.40
2022-10-11T18:49:13.233Z,9.30
2022-10-11T18:51:28.802Z,9.20
2022-10-11T18:53:43.670Z,9.20
2022-10-11T18:55:52.436Z,9.10
2022-10-11T18:57:55.879Z,9.10
2022-10-11T19:00:11.742Z,9.10
2022-10-11T19:02:28.939Z,9.10
2022-10-11T19:04:34.457Z,9.10
2022-10-11T19:06:43.090Z,9.10
2022-10-11T19:08:50.111Z,9.10
2022-10-11T19:10:55.559Z,9.10
2022-10-11T19:12:59.255Z,9.00
2022-10-11T19:15:08.290Z,9.00
2022-10-11T19:17:14.898Z,9.00
2022-10-11T19:19:25.920Z,9.00
2022-10-11T19:21:30.866Z,8.90
2022-10-11T19:23:45.330Z,9.00
2022-10-11T19:25:47.881Z,8.90
2022-10-11T19:27:50.456Z,8.90
2022-10-11T19:29:53.069Z,8.80
2022-10-11T19:32:26.983Z,8.80
2022-10-11T19:34:31.709Z,8.80
2022-10-11T19:36:36.815Z,8.70
2022-10-11T19:38:43.654Z,8.60
2022-10-11T19:40:46.755Z,8.60
2022-10-11T19:42:49.461Z,8.50
2022-10-11T19:44:52.226Z,8.50
2022-10-11T19:47:04.237Z,8.50
2022-10-11T19:49:08.070Z,8.50
2022-10-11T19:51:17.098Z,8.50
2022-10-11T19:53:19.678Z,8.50
2022-10-11T19:55:22.428Z,8.50
2022-10-11T19:57:25.054Z,8.40
2022-10-11T19:59:28.161Z,8.40
2022-10-11T20:01:33.353Z,8.40
2022-10-11T20:03:39.107Z,8.30
2022-10-11T20:05:43.249Z,8.30
2022-10-11T20:07:52.359Z,8.30
2022-10-11T20:10:20.894Z,8.20
2022-10-11T20:12:23.826Z,8.20
2022-10-11T20:14:26.909Z,8.10
2022-10-11T20:16:34.654Z,8.10
2022-10-11T20:18:39.640Z,8.10
2022-10-11T20:20:55.932Z,8.00
2022-10-11T20:22:59.025Z,8.00
2022-10-11T20:25:03.220Z,8.00
2022-10-11T20:27:07.424Z,8.00
2022-10-11T20:29:12.327Z,7.90
2022-10-11T20:31:32.075Z,7.90
2022-10-11T20:33:34.925Z,7.90
2022-10-11T20:35:37.698Z,7.90
2022-10-11T20:37:40.428Z,7.80
2022-10-11T20:40:14.020Z,7.80
2022-10-11T20:42:16.708Z,7.70
2022-10-11T20:44:19.399Z,7.70
2022-10-11T20:46:28.129Z,7.70
2022-10-11T20:48:32.140Z,7.60
2022-10-11T20:50:35.317Z,7.60
2022-10-11T20:52:38.123Z,7.60
2022-10-11T20:54:41.681Z,7.50
2022-10-11T20:56:44.446Z,7.50
2022-10-11T20:58:47.580Z,7.40
2022-10-11T21:00:50.647Z,7.40
2022-10-11T21:02:54.386Z,7.30
2022-10-11T21:04:57.259Z,7.30
2022-10-11T21:07:02.973Z,7.30
2022-10-11T21:09:05.718Z,7.30
2022-10-11T21:11:09.609Z,7.40
2022-10-11T21:13:12.268Z,7.30
2022-10-11T21:15:14.960Z,7.30
2022-10-11T21:17:17.772Z,7.30
2022-10-11T21:19:20.490Z,7.30
2022-10-11T21:21:24.358Z,7.30
2022-10-11T21:23:27.020Z,7.30
2022-10-11T21:25:29.840Z,7.30
2022-10-11T21:27:39.561Z,7.30
2022-10-11T21:29:42.233Z,7.30
2022-10-11T21:31:44.963Z,7.20
2022-10-11T21:33:48.074Z,7.30
2022-10-11T21:35:50.821Z,7.30
2022-10-11T21:37:55.912Z,7.30
2022-10-11T21:40:08.515Z,7.30
2022-10-11T21:42:11.304Z,7.20
2022-10-11T21:44:14.121Z,7.30
2022-10-11T21:46:41.609Z,7.20
2022-10-11T21:48:52.550Z,7.20
2022-10-11T21:50:55.732Z,7.20
2022-10-11T21:52:58.789Z,7.10
2022-10-11T21:55:01.802Z,7.10
2022-10-11T21:57:04.790Z,7.10
2022-10-11T21:59:11.117Z,7.10
2022-10-11T22:01:15.375Z,7.00
2022-10-11T22:03:18.074Z,7.00
2022-10-11T22:05:21.245Z,6.90
2022-10-11T22:07:24.286Z,6.90
2022-10-11T22:09:28.523Z,6.80
2022-10-11T22:11:31.466Z,6.80
2022-10-11T22:13:37.076Z,6.80
2022-10-11T22:15:39.736Z,6.80
2022-10-11T22:17:42.368Z,6.80
2022-10-11T22:19:44.972Z,6.80
2022-10-11T22:21:47.628Z,6.70
2022-10-11T22:23:53.612Z,6.70
2022-10-11T22:25:56.243Z,6.70
2022-10-11T22:27:58.922Z,6.70
2022-10-11T22:30:01.896Z,6.60
2022-10-11T22:32:04.724Z,6.60
2022-10-11T22:34:07.372Z,6.60
2022-10-11T22:36:12.701Z,6.60
2022-10-11T22:38:15.315Z,6.60
2022-10-11T22:40:19.588Z,6.60
2022-10-11T22:42:27.530Z,6.60
2022-10-11T22:44:30.516Z,6.70
2022-10-11T22:46:33.193Z,6.60
2022-10-11T22:48:39.185Z,6.60
2022-10-11T22:50:42.439Z,6.70
2022-10-11T22:52:45.122Z,6.60
2022-10-11T22:54:47.849Z,6.70
2022-10-11T22:56:50.498Z,6.60
2022-10-11T22:58:53.205Z,6.60
2022-10-11T23:00:56.966Z,6.50
2022-10-11T23:03:00.886Z,6.50
2022-10-11T23:05:04.156Z,6.40
2022-10-11T23:07:06.965Z,6.40
2022-10-11T23:09:09.710Z,6.30
2022-10-11T23:11:12.777Z,6.30
2022-10-11T23:13:15.450Z,6.20
2022-10-11T23:15:18.255Z,6.20
2022-10-11T23:17:20.986Z,6.20
2022-10-11T23:19:25.652Z,6.20
2022-10-11T23:21:28.309Z,6.10
2022-10-11T23:23:31.486Z,6.00
2022-10-11T23:25:34.378Z,6.00
2022-10-11T23:27:37.351Z,6.00
2022-10-11T23:29:41.108Z,5.90
2022-10-11T23:31:44.583Z,5.90
2022-10-11T23:33:48.133Z,5.90
2022-10-11T23:35:51.066Z,5.80
2022-10-11T23:37:54.863Z,5.80
2022-10-11T23:39:57.430Z,5.80
2022-10-11T23:42:00.120Z,5.70
2022-10-11T23:44:02.765Z,5.70
2022-10-11T23:46:05.601Z,5.70
2022-10-11T23:48:08.203Z,5.70
2022-10-11T23:50:38.787Z,5.70
2022-10-11T23:52:41.754Z,5.70
2022-10-11T23:54:44.755Z,5.70
2022-10-11T23:56:50.578Z,5.80
2022-10-11T23:58:53.641Z,5.80
